Latest Coastal Weather Observations for Wilsons Promontory

IDV60701

Issued at 5:21 am EDT Monday 20 January 2020 (issued every 10 minutes, with the page automatically refreshed every 10 minutes)

About coastal observations | Map of coastal stations | Coastal observations for VIC | Marine services | Other Formats
Station Details ID: 085096 Name: WILSONS PROMONTORY LIGHTHOUSE Lat: -39.13 Lon: 146.42 Height: 95.0 m
Data from the previous 72 hours. | See also: Recent months at Wilsons Promontory
Date/Time
EDT
Wind Sea
Height
m
Swell Vis
km
Cloud Weather Temp
°C
Press
hPa
Rain since
9am
mm
Dir  Spd
kts
Gust
kts
Height
m
Period
s
Dir
20/05:00am E 16 20 - - - - - - - 16.3 1005.1 2.8
20/04:30am E 20 24 - - - - - - - 16.2 1004.9 2.8
20/04:00am E 21 27 - - - - - - - 16.4 1005.3 2.6
20/03:30am E 23 26 - - - - - - - 16.4 1005.8 2.4
20/03:00am E 23 28 - - - - - - - 16.3 1005.9 2.2
20/02:30am E 24 29 - - - - - - - 16.4 1006.4 2.0
20/02:00am E 26 29 - - - - - - - 16.5 1006.8 1.2
20/01:30am E 25 31 - - - - - - - 16.5 1007.1 0.4
20/01:00am E 26 32 - - - - - - - 16.5 1006.9 0.0
20/12:30am E 27 32 - - - - - - - 16.5 1006.6 0.0
20/12:00am E 28 33 - - - - - - - 16.5 1006.4 0.0
 
Date/Time
EDT
Wind Sea
Height
m
Swell Vis
km
Cloud Weather Temp
°C
Press
hPa
Rain since
9am
mm
Dir  Spd
kts
Gust
kts
Height
m
Period
s
Dir
19/11:30pm E 29 34 - - - - - - - 16.5 1006.3 0.0
19/11:00pm E 26 31 - - - - - - - 16.7 1006.8 0.0
19/10:30pm E 28 33 - - - - - - - 16.8 1007.1 0.0
19/10:00pm E 31 37 - - - - - - - 17.0 1007.0 0.0
19/09:30pm E 33 37 - - - - - - - 17.0 1006.9 0.0
19/09:00pm ENE 32 36 - - - - - - - 17.0 1006.6 0.0
19/08:30pm ENE 31 38 - - - - - - - 17.1 1007.0 0.0
19/08:00pm ENE 32 37 - - - - - - - 17.0 1006.4 0.0
19/07:30pm E 29 34 - - - - - - - 17.1 1006.2 0.0
19/07:00pm E 31 37 - - - - - - - 17.1 1005.9 0.0
19/06:30pm ENE 33 39 - - - - - - - 17.1 1005.5 0.0
19/06:00pm ENE 32 36 - - - - - - - 17.1 1005.3 0.0
19/05:30pm ENE 33 37 - - - - - - - 17.2 1005.5 0.0
19/05:00pm ENE 29 33 - - - - - - - 17.3 1006.2 0.0
19/04:30pm ENE 29 32 - - - - - - - 17.2 1006.3 0.0
19/04:00pm E 30 34 - - - - - - - 17.2 1006.0 0.0
19/03:30pm E 28 32 - - - - - - - 17.5 1006.1 0.0
19/03:00pm E 29 33 - - - - - - - 17.6 1006.1 0.0
19/02:30pm E 28 31 - - - - - - - 17.7 1006.7 0.0
19/02:00pm E 28 31 - - - - - - - 17.4 1007.1 0.0
19/01:30pm E 28 32 - - - - - - - 17.4 1007.4 0.0
19/01:00pm E 31 34 - - - - - - - 17.4 1007.5 0.0
19/12:30pm E 29 32 - - - - - - - 17.3 1007.9 0.0
19/12:00pm E 28 31 - - - - - - - 17.0 1007.9 0.0
19/11:30am E 31 34 - - - - - - - 17.1 1008.0 0.0
19/11:00am E 29 34 - - - - - - - 16.9 1008.1 0.0
19/10:30am E 29 32 - - - - - - - 16.9 1008.2 0.0
19/10:00am ENE 29 33 - - - - - - - 16.8 1008.2 0.0
19/09:30am E 29 33 - - - - - - - 16.7 1008.3 0.0
19/09:00am ENE 28 32 - - - - - - - 16.6 1008.2 0.0
19/08:30am ENE 28 33 - - - - - - - 16.6 1008.5 0.0
19/08:00am ENE 27 32 - - - - - - - 16.5 1008.0 0.0
19/07:00am ENE 30 36 - - - - - - - 16.5 1007.4 0.0
19/06:30am ENE 33 38 - - - - - - - 16.5 1007.0 0.0
19/06:00am ENE 32 37 - - - - - - - 16.5 1006.5 0.0
19/05:30am ENE 32 37 - - - - - - - 16.4 1007.0 0.0
19/05:00am ENE 34 39 - - - - - - - 16.4 1006.7 0.0
19/04:30am ENE 33 37 - - - - - - - 16.3 1006.5 0.0
19/04:00am ENE 34 39 - - - - - - - 16.4 1006.7 0.0
19/03:30am ENE 32 37 - - - - - - - 16.3 1006.7 0.0
19/03:00am ENE 32 39 - - - - - - - 16.2 1006.8 0.0
19/02:30am ENE 31 36 - - - - - - - 16.3 1007.2 0.0
19/02:00am ENE 32 39 - - - - - - - 16.3 1007.4 0.0
19/01:30am ENE 31 37 - - - - - - - 16.3 1007.9 0.0
19/01:00am ENE 31 38 - - - - - - - 16.4 1008.2 0.0
19/12:30am ENE 30 36 - - - - - - - 16.4 1008.5 0.0
19/12:00am ENE 29 37 - - - - - - - 16.4 1008.5 0.0
 
Date/Time
EDT
Wind Sea
Height
m
Swell Vis
km
Cloud Weather Temp
°C
Press
hPa
Rain since
9am
mm
Dir  Spd
kts
Gust
kts
Height
m
Period
s
Dir
18/11:30pm ENE 29 35 - - - - - - - 16.5 1009.1 0.0
18/11:00pm ENE 29 37 - - - - - - - 16.5 1009.1 0.0
18/10:30pm ENE 29 36 - - - - - - - 16.6 1009.4 0.0
18/10:00pm ENE 30 37 - - - - - - - 16.5 1009.4 0.0
18/09:30pm ENE 30 36 - - - - - - - 16.5 1009.4 0.0
18/09:00pm ENE 28 35 - - - - - - - 16.5 1009.2 0.0
18/08:30pm ENE 29 35 - - - - - - - 16.5 1009.3 0.0
18/08:00pm ENE 30 37 - - - - - - - 16.5 1009.2 0.0
18/07:30pm ENE 29 35 - - - - - - - 16.5 1009.3 0.0
18/07:00pm ENE 33 40 - - - - - - - 16.5 1009.0 0.0
18/06:30pm ENE 34 40 - - - - - - - 16.5 1009.0 0.0
18/06:00pm ENE 34 40 - - - - - - - 16.6 1009.2 0.0
18/05:30pm ENE 33 39 - - - - - - - 16.6 1009.3 0.0
18/05:00pm ENE 35 41 - - - - - - - 16.7 1009.6 0.0
18/04:30pm ENE 31 38 - - - - - - - 16.7 1009.9 0.0
18/04:16pm ENE 30 40 - - - - - - - 16.4 1010.1 0.0
18/04:00pm ENE 27 33 - - - - - - - 16.6 1010.4 0.0
18/03:30pm ENE 28 34 - - - - - - - 16.5 1010.7 0.0
18/03:15pm ENE 27 37 - - - - - - - 16.6 1010.7 0.0
18/03:00pm ENE 27 34 - - - - - - - 16.6 1010.5 0.0
18/02:30pm ENE 29 36 - - - - - - - 16.5 1010.8 0.0
18/02:00pm ENE 28 35 - - - - - - - 16.3 1011.2 0.0
18/01:30pm ENE 26 34 - - - - - - - 16.2 1011.6 0.0
18/01:00pm ENE 26 33 - - - - - - - 16.0 1012.2 0.0
18/12:30pm ENE 27 33 - - - - - - - 15.9 1012.4 0.0
18/12:00pm ENE 28 35 - - - - - - - 15.9 1012.4 0.0
18/11:30am ENE 30 35 - - - - - - - 15.9 1012.8 0.0
18/11:00am ENE 28 34 - - - - - - - 15.8 1013.0 0.0
18/10:30am ENE 28 35 - - - - - - - 15.9 1013.1 0.0
18/10:00am ENE 30 35 - - - - - - - 15.8 1013.4 0.0
18/09:30am ENE 30 34 - - - - - - - 15.7 1013.6 0.0
18/09:00am ENE 31 37 - - - - - - - 15.7 1013.1 0.0
18/08:30am ENE 30 35 - - - - - - - 15.7 1013.3 0.0
18/08:00am ENE 31 37 - - - - - - - 15.7 1013.2 0.0
18/07:30am ENE 31 37 - - - - - - - 15.6 1013.0 0.0
18/07:00am ENE 32 38 - - - - - - - 15.6 1012.8 0.0
18/06:30am ENE 33 37 - - - - - - - 15.4 1012.6 0.0
18/06:00am E 34 38 - - - - - - - 15.5 1012.3 0.0
18/05:30am E 34 38 - - - - - - - 15.5 1012.3 0.0
18/05:00am E 32 37 - - - - - - - 15.5 1012.5 0.0
18/04:30am E 32 38 - - - - - - - 15.5 1012.5 0.0
18/04:00am E 34 39 - - - - - - - 15.6 1012.4 0.0
18/03:30am E 34 39 - - - - - - - 15.7 1012.9 0.0
18/03:00am E 32 37 - - - - - - - 15.6 1013.0 0.0
18/02:30am E 34 38 - - - - - - - 15.6 1013.4 0.0
18/02:00am E 30 36 - - - - - - - 15.7 1013.9 0.0
18/01:30am ENE 30 34 - - - - - - - 15.8 1014.3 0.0
18/01:00am E 30 34 - - - - - - - 15.6 1014.7 0.0
18/12:30am ENE 29 33 - - - - - - - 15.8 1015.1 0.0
18/12:00am ENE 30 34 - - - - - - - 16.0 1015.3 0.0
 
Date/Time
EDT
Wind Sea
Height
m
Swell Vis
km
Cloud Weather Temp
°C
Press
hPa
Rain since
9am
mm
Dir  Spd
kts
Gust
kts
Height
m
Period
s
Dir
17/11:30pm ENE 27 34 - - - - - - - 16.0 1015.5 0.0
17/11:00pm ENE 26 32 - - - - - - - 16.0 1015.5 0.0
17/10:30pm ENE 28 33 - - - - - - - 15.8 1015.5 0.0
17/10:00pm ENE 26 30 - - - - - - - 15.7 1015.5 0.0
17/09:30pm ENE 27 33 - - - - - - - 15.7 1015.3 0.0
17/09:00pm ENE 28 33 - - - - - - - 15.8 1015.0 0.0
17/08:30pm ENE 27 31 - - - - - - - 15.9 1015.2 0.0
17/08:00pm ENE 27 32 - - - - - - - 15.9 1015.0 0.0
17/07:30pm ENE 26 30 - - - - - - - 15.9 1015.0 0.0
17/07:00pm ENE 28 32 - - - - - - - 16.0 1014.9 0.0
17/06:30pm ENE 26 30 - - - - - - - 16.2 1014.8 0.0
17/06:00pm E 28 31 - - - - - - - 16.4 1014.6 0.0
17/05:30pm ENE 27 31 - - - - - - - 16.5 1014.7 0.0
17/05:00pm E 29 32 - - - - - - - 16.6 1014.7 0.0
17/04:30pm E 28 32 - - - - - - - 16.5 1014.7 0.0
17/04:00pm ENE 27 31 - - - - - - - 16.5 1014.7 0.0
17/03:30pm ENE 29 33 - - - - - - - 16.5 1014.5 0.0
17/03:00pm E 28 31 - - - - - - - 16.6 1014.6 0.0
17/02:30pm E 29 33 - - - - - - - 16.6 1014.8 0.0
17/02:00pm E 26 32 - - - - - - - 16.8 1014.9 0.0
17/01:30pm E 26 30 - - - - - - - 17.0 1015.2 0.0
17/01:00pm E 24 28 - - - - - - - 17.1 1015.3 0.0
17/12:30pm E 24 28 - - - - - - - 16.7 1015.4 0.0
17/12:00pm E 24 28 - - - - - - - 16.4 1015.1 0.0
17/11:30am E 24 28 - - - - - - - 16.7 1015.3 0.0
17/11:00am E 20 25 - - - - - - - 16.7 1015.3 0.0
17/10:30am E 22 27 - - - - - - - 16.0 1015.3 0.0
17/10:00am E 21 25 - - - - - - - 15.5 1015.1 0.0
17/09:30am E 21 25 - - - - - - - 15.3 1015.0 0.0
17/09:00am E 22 26 - - - - - - - 15.1 1014.5 2.4
17/08:30am E 23 27 - - - - - - - 15.1 1014.4 2.4
17/08:00am E 22 26 - - - - - - - 15.1 1014.0 2.4
17/07:30am E 19 25 - - - - - - - 15.1 1013.8 2.4
17/07:00am E 21 25 - - - - - - - 15.0 1013.5 2.4
17/06:30am E 22 25 - - - - - - - 14.9 1013.3 2.4
17/06:00am E 25 27 - - - - - - - 14.8 1012.7 2.4
17/05:30am E 25 29 - - - - - - - 14.6 1012.6 2.4

Other formats

Comma delimited format used in spreadsheet applications
http://www.bom.gov.au/fwo/IDV60701/IDV60701.94893.axf

JavaScript Object Notation format (JSON) in row-major order
http://www.bom.gov.au/fwo/IDV60701/IDV60701.94893.json

Data quality

Most of these data are generated automatically and are frequently updated. Quality checks on data are not normally performed. It is possible for incorrect values to appear. Refer to information at About Latest Weather Observations and please check the disclaimer before using these data.